EGLC/LCY METAR and TAF weather

Enter ICAO airport designator
Station Type Date Time Source
EGLC METAR 2021/09/16 21:50 UTC NOAA

EGLC 162150Z AUTO 23005KT 9999 NCD 17/15 Q1018


Station Type Date Time Source
EGLC Decoded METAR 2021/09/16 21:50 UTC NOAA

London City Airport, United Kingdom (EGLC) 51-30N 000-30W
Sep 16, 2021 - 05:50 PM EDT / 2021.09.16 2150 UTC
Wind: from the SW (230 degrees) at 6 MPH (5 KT):0
Visibility: greater than 7 mile(s):0
Temperature: 62 F (17 C)
Dew Point: 59 F (15 C)
Relative Humidity: 88%
Pressure (altimeter): 30.06 in. Hg (1018 hPa)
ob: EGLC 162150Z AUTO 23005KT 9999 NCD 17/15 Q1018
cycle: 22

Station Type Date Time Source
EGLC TAF 2018/10/15 21:30 UTC NOAA

TAF EGLC 152119Z 1521/1621 CNL

Example: see airport list